Time;durP1;ratioP1;P1;durP2;ratioP2;P2;SDS_P1;SDS_P2;PMS_P1;PMS_P2;Temp;Humidity;BMP_temperature;BMP_pressure;BME280_temperature;BME280_humidity;BME280_pressure;Samples;Min_cycle;Max_cycle;Signal;HPM_P1;HPM_P2
2023/03/12 00:01:58;;;;;;;;;;;12.80;79.30;;;;;;5036122;28;20172;-87
2023/03/12 00:04:24;;;;;;;;;;;12.80;79.30;;;;;;5037098;28;19931;-87
2023/03/12 00:06:50;;;;;;;;;;;12.80;79.30;;;;;;5036990;28;20012;-87
2023/03/12 00:09:16;;;;;;;;;;;12.80;79.30;;;;;;5035801;28;19974;-87
2023/03/12 00:11:44;;;;;;;;;;;12.80;79.30;;;;;;5035144;28;19908;-87
2023/03/12 00:14:10;;;;;;;;;;;12.80;79.30;;;;;;5035704;28;19909;-87
2023/03/12 00:16:35;;;;;;;;;;;12.80;79.30;;;;;;5034837;28;19912;-87
2023/03/12 00:19:02;;;;;;;;;;;12.80;79.30;;;;;;5035168;28;19916;-87
2023/03/12 00:21:27;;;;;;;;;;;12.80;79.20;;;;;;5034629;28;20052;-87
2023/03/12 00:23:53;;;;;;;;;;;12.80;79.20;;;;;;5034264;28;19913;-88
2023/03/12 00:26:22;;;;;;;;;;;12.80;79.20;;;;;;5035674;28;19917;-88
2023/03/12 00:28:49;;;;;;;;;;;12.70;79.10;;;;;;5053813;28;19989;-88
2023/03/12 00:31:19;;;;;;;;;;;12.70;79.10;;;;;;5035279;28;20315;-87
2023/03/12 00:33:45;;;;;;;;;;;12.70;79.10;;;;;;5036176;28;19909;-88
2023/03/12 00:36:13;;;;;;;;;;;12.70;79.10;;;;;;5035182;28;19909;-88
2023/03/12 00:38:42;;;;;;;;;;;12.70;79.00;;;;;;5033691;28;19920;-87
2023/03/12 00:41:08;;;;;;;;;;;12.70;78.90;;;;;;5034389;28;19923;-87
2023/03/12 00:43:33;;;;;;;;;;;12.70;78.90;;;;;;5035030;28;19909;-88
2023/03/12 00:45:59;;;;;;;;;;;12.70;78.80;;;;;;5052464;28;20007;-87
2023/03/12 00:48:26;;;;;;;;;;;12.70;78.60;;;;;;5035111;28;20149;-87
2023/03/12 00:50:54;;;;;;;;;;;12.70;78.50;;;;;;5052924;28;19909;-87
2023/03/12 00:53:23;;;;;;;;;;;12.70;78.30;;;;;;5035171;28;20007;-87
2023/03/12 00:55:51;;;;;;;;;;;12.60;78.20;;;;;;5033623;28;19952;-88
2023/03/12 00:58:20;;;;;;;;;;;12.60;78.10;;;;;;5034279;28;20283;-88
2023/03/12 01:00:46;;;;;;;;;;;12.60;77.90;;;;;;5053586;28;20032;-88
2023/03/12 01:03:14;;;;;;;;;;;12.60;77.80;;;;;;5035696;28;20085;-88
2023/03/12 01:05:40;;;;;;;;;;;12.60;77.70;;;;;;5034665;28;20335;-87
2023/03/12 01:08:07;;;;;;;;;;;12.60;77.60;;;;;;5051131;28;19996;-87
2023/03/12 01:10:32;;;;;;;;;;;12.60;77.50;;;;;;5042181;28;19908;-87
2023/03/12 01:13:01;;;;;;;;;;;12.60;77.40;;;;;;5041656;28;19909;-87
2023/03/12 01:15:30;;;;;;;;;;;12.60;77.40;;;;;;5057731;28;19909;-87
2023/03/12 01:17:58;;;;;;;;;;;12.60;77.30;;;;;;5058025;28;20379;-87
2023/03/12 01:20:27;;;;;;;;;;;12.50;77.20;;;;;;5039898;28;19944;-87
2023/03/12 01:22:56;;;;;;;;;;;12.50;77.10;;;;;;5041242;28;19999;-87
2023/03/12 01:25:24;;;;;;;;;;;12.50;76.90;;;;;;5050095;28;19956;-87
2023/03/12 01:27:50;;;;;;;;;;;12.50;76.70;;;;;;5039786;28;20226;-87
2023/03/12 01:30:19;;;;;;;;;;;12.50;76.70;;;;;;5038825;28;20042;-87
2023/03/12 01:32:48;;;;;;;;;;;12.50;76.70;;;;;;5040912;28;19909;-87
2023/03/12 01:35:13;;;;;;;;;;;12.50;76.70;;;;;;5040980;28;19917;-87
2023/03/12 01:37:39;;;;;;;;;;;12.50;76.60;;;;;;5041016;28;20066;-87
2023/03/12 01:40:05;;;;;;;;;;;12.50;76.70;;;;;;5040799;28;19913;-87
2023/03/12 01:42:33;;;;;;;;;;;12.50;76.60;;;;;;5040357;28;19921;-87
2023/03/12 01:45:05;;;;;;;;;;;12.50;76.60;;;;;;5057541;28;19909;-87
2023/03/12 01:47:34;;;;;;;;;;;12.50;76.50;;;;;;5040090;28;20309;-87
2023/03/12 01:50:00;;;;;;;;;;;12.50;76.50;;;;;;5040227;28;19978;-87
2023/03/12 01:52:28;;;;;;;;;;;12.50;76.60;;;;;;5039116;28;19966;-87
2023/03/12 01:55:12;;;;;;;;;;;12.40;76.40;;;;;;5040700;28;19909;-87
2023/03/12 01:57:41;;;;;;;;;;;12.40;76.40;;;;;;5040275;28;20256;-87
2023/03/12 02:00:08;;;;;;;;;;;12.40;76.40;;;;;;5038370;28;19978;-88
2023/03/12 02:02:34;;;;;;;;;;;12.40;76.40;;;;;;5037527;28;19959;-87
2023/03/12 02:05:15;;;;;;;;;;;12.40;76.40;;;;;;5055222;28;20175;-87
2023/03/12 02:07:43;;;;;;;;;;;12.40;76.40;;;;;;5040087;28;19971;-87
2023/03/12 02:10:09;;;;;;;;;;;12.40;76.30;;;;;;5039196;28;19970;-87
2023/03/12 02:12:38;;;;;;;;;;;12.40;76.30;;;;;;5038290;28;19909;-87
2023/03/12 02:15:07;;;;;;;;;;;12.40;76.70;;;;;;5037627;28;19974;-87
2023/03/12 02:17:34;;;;;;;;;;;12.40;76.00;;;;;;5036996;28;19909;-87
2023/03/12 02:20:18;;;;;;;;;;;12.40;76.10;;;;;;5053248;28;19908;-87
2023/03/12 02:22:50;;;;;;;;;;;12.40;75.90;;;;;;5035354;28;19913;-87
2023/03/12 02:25:34;;;;;;;;;;;12.40;76.00;;;;;;5036306;28;19909;-87
2023/03/12 02:28:01;;;;;;;;;;;12.40;76.00;;;;;;5035831;28;19927;-87
2023/03/12 02:30:31;;;;;;;;;;;12.40;75.90;;;;;;5036936;28;19936;-87
2023/03/12 02:33:03;;;;;;;;;;;12.40;75.80;;;;;;5038607;28;19917;-87
2023/03/12 02:35:29;;;;;;;;;;;12.40;75.80;;;;;;5056899;28;19909;-87
2023/03/12 02:37:55;;;;;;;;;;;12.40;75.80;;;;;;5039578;28;19908;-87
2023/03/12 02:40:23;;;;;;;;;;;12.40;75.70;;;;;;5039698;28;20310;-87
2023/03/12 02:42:49;;;;;;;;;;;12.40;75.80;;;;;;5040115;28;20248;-87
2023/03/12 02:45:18;;;;;;;;;;;12.40;75.70;;;;;;5040138;28;19908;-87
2023/03/12 02:47:46;;;;;;;;;;;12.40;75.80;;;;;;5041965;28;20504;-87
2023/03/12 02:50:12;;;;;;;;;;;12.40;75.60;;;;;;5041145;28;20286;-87
2023/03/12 02:52:38;;;;;;;;;;;12.30;75.50;;;;;;5041197;28;19909;-87
2023/03/12 02:55:07;;;;;;;;;;;12.30;75.30;;;;;;5039074;28;20013;-87
2023/03/12 02:57:36;;;;;;;;;;;12.30;75.30;;;;;;5038761;28;19966;-87
2023/03/12 03:00:11;;;;;;;;;;;12.30;75.90;;;;;;5055366;28;19916;-87
2023/03/12 03:02:40;;;;;;;;;;;12.30;75.20;;;;;;5055558;28;20279;-87
2023/03/12 03:05:11;;;;;;;;;;;12.30;75.10;;;;;;5038108;28;19909;-87
2023/03/12 03:07:37;;;;;;;;;;;12.30;75.00;;;;;;5055234;28;19908;-87
2023/03/12 03:10:03;;;;;;;;;;;12.30;75.00;;;;;;5039792;28;20171;-87
2023/03/12 03:12:36;;;;;;;;;;;12.30;74.90;;;;;;5040704;28;19909;-87
2023/03/12 03:15:05;;;;;;;;;;;12.30;74.80;;;;;;5057809;28;19935;-87
2023/03/12 03:17:33;;;;;;;;;;;12.30;74.70;;;;;;5058152;28;19974;-87
2023/03/12 03:20:04;;;;;;;;;;;12.30;74.60;;;;;;5038975;28;20180;-87
2023/03/12 03:22:33;;;;;;;;;;;12.30;74.50;;;;;;5039576;28;20267;-87
2023/03/12 03:24:59;;;;;;;;;;;12.30;74.30;;;;;;5039241;28;19912;-87
2023/03/12 03:27:24;;;;;;;;;;;12.30;74.20;;;;;;5039769;28;19928;-87
2023/03/12 03:29:50;;;;;;;;;;;12.30;74.20;;;;;;5039207;28;19909;-87
2023/03/12 03:32:16;;;;;;;;;;;12.20;74.00;;;;;;5056206;28;19980;-87
2023/03/12 03:34:45;;;;;;;;;;;12.20;73.80;;;;;;5056809;28;20371;-87
2023/03/12 03:37:13;;;;;;;;;;;12.20;73.50;;;;;;5057264;28;19917;-87
2023/03/12 03:39:42;;;;;;;;;;;12.20;73.60;;;;;;5039748;28;20019;-87
2023/03/12 03:42:08;;;;;;;;;;;12.20;73.30;;;;;;5039278;28;20294;-87
2023/03/12 03:44:36;;;;;;;;;;;12.20;73.30;;;;;;5038050;28;19909;-87
2023/03/12 03:47:02;;;;;;;;;;;12.20;73.10;;;;;;5056200;28;20026;-87
2023/03/12 03:49:28;;;;;;;;;;;12.20;72.90;;;;;;5038711;28;20015;-87
2023/03/12 03:51:53;;;;;;;;;;;12.20;72.80;;;;;;5038405;28;19972;-87
2023/03/12 03:54:19;;;;;;;;;;;12.20;72.60;;;;;;5039310;28;19978;-87
2023/03/12 03:56:45;;;;;;;;;;;12.20;72.30;;;;;;5039028;28;19908;-87
2023/03/12 03:59:10;;;;;;;;;;;12.20;72.30;;;;;;5039712;28;19990;-87
2023/03/12 04:01:36;;;;;;;;;;;12.20;72.10;;;;;;5056827;28;20188;-87
2023/03/12 04:04:05;;;;;;;;;;;12.20;71.90;;;;;;5039667;28;19918;-87
2023/03/12 04:06:30;;;;;;;;;;;12.10;71.80;;;;;;5039791;28;19923;-87
2023/03/12 04:08:59;;;;;;;;;;;12.10;71.80;;;;;;5057341;28;19913;-87
2023/03/12 04:11:28;;;;;;;;;;;12.10;71.80;;;;;;5039565;28;19909;-87
2023/03/12 04:13:54;;;;;;;;;;;12.10;71.80;;;;;;5039572;28;20270;-87
2023/03/12 04:16:23;;;;;;;;;;;12.10;71.60;;;;;;5039981;28;19910;-88
2023/03/12 04:18:48;;;;;;;;;;;12.10;71.60;;;;;;5039961;28;19916;-88
2023/03/12 04:21:18;;;;;;;;;;;12.10;71.50;;;;;;5039095;28;19927;-88
2023/03/12 04:23:46;;;;;;;;;;;12.10;71.30;;;;;;5039781;28;20019;-88
2023/03/12 04:26:16;;;;;;;;;;;12.10;71.30;;;;;;5038781;28;19923;-88
2023/03/12 04:28:41;;;;;;;;;;;12.10;71.40;;;;;;5039719;28;20250;-88
2023/03/12 04:31:12;;;;;;;;;;;12.00;71.20;;;;;;5055382;28;19917;-88
2023/03/12 04:33:40;;;;;;;;;;;12.10;71.30;;;;;;5037838;28;19955;-88
2023/03/12 04:36:10;;;;;;;;;;;12.00;71.10;;;;;;5054587;28;19971;-88
2023/03/12 04:38:35;;;;;;;;;;;12.00;70.90;;;;;;5037783;28;19978;-88
2023/03/12 04:41:06;;;;;;;;;;;12.00;70.90;;;;;;5056171;28;20350;-88
2023/03/12 04:43:32;;;;;;;;;;;12.00;70.80;;;;;;5037862;28;19935;-89
2023/03/12 04:46:01;;;;;;;;;;;12.00;70.70;;;;;;5047221;28;20346;-88
2023/03/12 04:48:27;;;;;;;;;;;12.00;70.60;;;;;;5037296;28;20183;-88
2023/03/12 04:50:59;;;;;;;;;;;12.00;70.40;;;;;;5038516;28;20362;-88
2023/03/12 04:53:24;;;;;;;;;;;12.00;70.20;;;;;;5039129;28;19919;-88
2023/03/12 04:55:50;;;;;;;;;;;12.00;69.80;;;;;;5039348;28;19909;-88
2023/03/12 04:58:16;;;;;;;;;;;12.00;69.70;;;;;;5056653;28;19943;-88
2023/03/12 05:00:49;;;;;;;;;;;12.00;69.60;;;;;;5054856;28;19927;-88
2023/03/12 05:03:18;;;;;;;;;;;12.00;69.40;;;;;;5038082;28;19919;-88
2023/03/12 05:05:46;;;;;;;;;;;12.00;69.30;;;;;;5037513;28;20190;-89
2023/03/12 05:08:15;;;;;;;;;;;12.00;69.10;;;;;;5036709;28;19935;-88
2023/03/12 05:10:44;;;;;;;;;;;12.00;68.90;;;;;;5035761;28;19912;-88
2023/03/12 05:13:13;;;;;;;;;;;12.00;68.60;;;;;;5053150;28;19916;-88
2023/03/12 05:15:39;;;;;;;;;;;12.00;68.40;;;;;;5038018;28;19909;-88
2023/03/12 05:18:04;;;;;;;;;;;12.00;68.10;;;;;;5037775;28;19909;-88
2023/03/12 05:20:31;;;;;;;;;;;12.00;67.90;;;;;;5038584;28;19913;-88
2023/03/12 05:22:56;;;;;;;;;;;12.00;67.80;;;;;;5037799;28;19908;-88
2023/03/12 05:25:22;;;;;;;;;;;12.00;67.60;;;;;;5037515;28;19913;-88
2023/03/12 05:27:50;;;;;;;;;;;11.90;67.50;;;;;;5038129;28;19956;-88
2023/03/12 05:30:20;;;;;;;;;;;11.90;67.50;;;;;;5037718;28;19909;-88
2023/03/12 05:32:45;;;;;;;;;;;11.90;67.50;;;;;;5037853;28;20048;-88
2023/03/12 05:35:14;;;;;;;;;;;11.90;67.40;;;;;;5054842;28;19923;-88
2023/03/12 05:37:41;;;;;;;;;;;11.90;67.40;;;;;;5038877;28;19956;-89
2023/03/12 05:40:09;;;;;;;;;;;11.90;67.40;;;;;;5036919;28;19917;-88
2023/03/12 05:42:35;;;;;;;;;;;11.90;67.40;;;;;;5038675;28;19913;-88
2023/03/12 05:45:00;;;;;;;;;;;11.90;67.40;;;;;;5037770;28;19919;-88
2023/03/12 05:47:26;;;;;;;;;;;11.90;67.60;;;;;;5037664;28;19909;-88
2023/03/12 05:49:54;;;;;;;;;;;11.90;67.50;;;;;;5055939;28;19912;-89
2023/03/12 05:52:20;;;;;;;;;;;11.90;67.40;;;;;;5037403;28;19908;-88
2023/03/12 05:54:45;;;;;;;;;;;11.90;67.30;;;;;;5036424;28;20074;-88
2023/03/12 05:57:11;;;;;;;;;;;11.90;67.40;;;;;;5040589;28;19928;-88
2023/03/12 05:59:37;;;;;;;;;;;11.90;67.40;;;;;;5039596;28;19970;-88
2023/03/12 06:02:02;;;;;;;;;;;11.90;67.50;;;;;;5039737;28;19952;-88
2023/03/12 06:04:28;;;;;;;;;;;11.90;67.60;;;;;;5039286;28;19909;-88
2023/03/12 06:06:57;;;;;;;;;;;11.90;67.70;;;;;;5040400;28;20278;-88
2023/03/12 06:09:22;;;;;;;;;;;11.90;67.70;;;;;;5039141;28;19912;-89
2023/03/12 06:11:51;;;;;;;;;;;11.90;67.70;;;;;;5040942;28;19936;-89
2023/03/12 06:14:16;;;;;;;;;;;11.90;67.60;;;;;;5056928;28;19999;-88
2023/03/12 06:16:42;;;;;;;;;;;11.90;67.60;;;;;;5039464;28;20298;-89
2023/03/12 06:19:12;;;;;;;;;;;11.90;67.60;;;;;;5039865;28;19920;-88
2023/03/12 06:21:41;;;;;;;;;;;11.90;67.70;;;;;;5056925;28;19947;-88
2023/03/12 06:24:07;;;;;;;;;;;11.90;67.70;;;;;;5040004;28;19920;-88
2023/03/12 06:26:33;;;;;;;;;;;11.90;67.70;;;;;;5039751;28;19921;-88
2023/03/12 06:28:58;;;;;;;;;;;11.90;67.60;;;;;;5039852;28;19961;-88
2023/03/12 06:31:26;;;;;;;;;;;11.90;67.60;;;;;;5039355;28;19909;-88
2023/03/12 06:33:55;;;;;;;;;;;11.90;67.60;;;;;;5039174;28;20028;-88
2023/03/12 06:36:22;;;;;;;;;;;12.00;67.60;;;;;;5039545;28;19913;-88
2023/03/12 06:38:48;;;;;;;;;;;12.00;67.60;;;;;;5057980;28;19982;-88
2023/03/12 06:41:15;;;;;;;;;;;12.00;67.30;;;;;;5057190;28;19944;-88
2023/03/12 06:43:41;;;;;;;;;;;12.10;67.10;;;;;;5040114;28;19978;-88
2023/03/12 06:46:17;;;;;;;;;;;12.10;67.00;;;;;;5040719;28;19944;-88
2023/03/12 06:48:46;;;;;;;;;;;12.00;66.90;;;;;;5038675;28;20198;-88
2023/03/12 06:51:15;;;;;;;;;;;12.00;66.50;;;;;;5038849;28;19920;-88
2023/03/12 06:53:41;;;;;;;;;;;12.00;66.30;;;;;;5039124;28;19908;-88
2023/03/12 06:56:13;;;;;;;;;;;12.00;66.30;;;;;;5055177;28;19915;-88
2023/03/12 06:58:41;;;;;;;;;;;12.00;66.10;;;;;;5056025;28;20271;-88
2023/03/12 07:01:10;;;;;;;;;;;12.00;66.10;;;;;;5039294;28;19940;-88
2023/03/12 07:03:42;;;;;;;;;;;12.00;66.00;;;;;;5039009;28;19936;-88
2023/03/12 07:06:15;;;;;;;;;;;12.00;66.00;;;;;;5038466;28;19913;-88
2023/03/12 07:08:43;;;;;;;;;;;12.00;65.80;;;;;;5038913;28;19916;-88
2023/03/12 07:11:12;;;;;;;;;;;11.90;65.70;;;;;;5039122;28;20257;-88
2023/03/12 07:13:41;;;;;;;;;;;11.90;65.70;;;;;;5036693;28;19913;-88
2023/03/12 07:16:10;;;;;;;;;;;11.90;65.30;;;;;;5036166;28;19974;-89
2023/03/12 07:18:35;;;;;;;;;;;11.90;64.90;;;;;;5035498;28;20003;-89
2023/03/12 07:21:04;;;;;;;;;;;11.90;64.70;;;;;;5035180;28;20015;-88
2023/03/12 07:23:32;;;;;;;;;;;11.90;64.40;;;;;;5034509;28;19909;-89
2023/03/12 07:25:58;;;;;;;;;;;11.90;64.20;;;;;;5034146;28;19939;-88
2023/03/12 07:28:23;;;;;;;;;;;11.90;64.00;;;;;;5035305;28;20194;-89
2023/03/12 07:30:49;;;;;;;;;;;12.00;63.70;;;;;;5037735;28;20255;-88
2023/03/12 07:33:19;;;;;;;;;;;12.00;63.60;;;;;;5037485;28;20354;-88
2023/03/12 07:35:45;;;;;;;;;;;12.00;63.40;;;;;;5035500;28;19919;-88
2023/03/12 07:38:11;;;;;;;;;;;12.00;63.20;;;;;;5031462;28;19909;-88
2023/03/12 07:40:39;;;;;;;;;;;12.00;63.10;;;;;;5032335;28;19909;-88
2023/03/12 07:43:09;;;;;;;;;;;12.00;63.00;;;;;;5037327;28;20268;-88
2023/03/12 07:45:36;;;;;;;;;;;12.00;62.90;;;;;;5054389;28;20281;-88
2023/03/12 07:48:06;;;;;;;;;;;12.00;62.80;;;;;;5036663;28;19916;-89
2023/03/12 07:50:31;;;;;;;;;;;12.00;62.70;;;;;;5034784;28;19963;-88
2023/03/12 07:53:00;;;;;;;;;;;12.00;62.60;;;;;;5036794;28;19948;-89
2023/03/12 07:55:26;;;;;;;;;;;12.00;62.60;;;;;;5026164;28;19919;-88
2023/03/12 07:57:57;;;;;;;;;;;12.00;62.60;;;;;;5011113;28;19909;-88
2023/03/12 08:00:25;;;;;;;;;;;12.10;62.70;;;;;;5010224;28;20041;-88
2023/03/12 08:02:54;;;;;;;;;;;12.10;62.80;;;;;;5010115;28;19999;-88
2023/03/12 08:05:23;;;;;;;;;;;12.10;62.60;;;;;;5011522;28;19916;-88
2023/03/12 08:07:50;;;;;;;;;;;12.10;62.60;;;;;;5028289;28;19909;-88
2023/03/12 08:10:15;;;;;;;;;;;12.10;62.60;;;;;;5014024;28;19916;-88
2023/03/12 08:12:44;;;;;;;;;;;12.10;62.60;;;;;;5011167;28;20678;-88
2023/03/12 08:15:13;;;;;;;;;;;12.10;62.60;;;;;;5010955;28;19908;-88
2023/03/12 08:17:41;;;;;;;;;;;12.10;62.60;;;;;;5009089;28;20199;-88
2023/03/12 08:20:10;;;;;;;;;;;12.10;62.60;;;;;;5009242;28;19909;-88
2023/03/12 08:22:39;;;;;;;;;;;12.10;62.50;;;;;;5009623;28;20016;-88
2023/03/12 08:25:05;;;;;;;;;;;12.10;62.50;;;;;;5008325;28;19913;-88
2023/03/12 08:27:31;;;;;;;;;;;12.10;62.40;;;;;;5008398;28;20176;-87
2023/03/12 08:30:00;;;;;;;;;;;12.10;62.30;;;;;;5009091;28;19909;-88
2023/03/12 08:32:28;;;;;;;;;;;12.10;62.20;;;;;;5009214;28;19908;-87
2023/03/12 08:34:54;;;;;;;;;;;12.10;62.10;;;;;;5008212;28;20014;-88
2023/03/12 08:37:19;;;;;;;;;;;12.10;62.10;;;;;;5026717;28;20246;-88
2023/03/12 08:39:45;;;;;;;;;;;12.10;62.10;;;;;;5034253;28;20344;-88
2023/03/12 08:42:11;;;;;;;;;;;12.10;62.10;;;;;;5053527;28;20428;-88
2023/03/12 08:44:36;;;;;;;;;;;12.10;62.20;;;;;;5035141;28;19921;-88
2023/03/12 08:47:02;;;;;;;;;;;12.20;62.20;;;;;;5050406;28;19935;-87
2023/03/12 08:49:30;;;;;;;;;;;12.20;61.90;;;;;;5051805;28;19919;-88
2023/03/12 08:51:57;;;;;;;;;;;12.20;61.80;;;;;;5032273;28;20336;-88
2023/03/12 08:54:26;;;;;;;;;;;12.20;61.70;;;;;;5032279;28;20206;-87
2023/03/12 08:56:51;;;;;;;;;;;12.20;61.80;;;;;;5034314;28;20282;-88
2023/03/12 08:59:19;;;;;;;;;;;12.20;61.80;;;;;;5038063;28;19909;-88
2023/03/12 09:01:44;;;;;;;;;;;12.10;61.70;;;;;;5037975;28;20064;-88
2023/03/12 09:04:10;;;;;;;;;;;12.20;61.70;;;;;;5032258;28;20198;-87
2023/03/12 09:06:35;;;;;;;;;;;12.20;61.50;;;;;;5032140;28;20221;-88
2023/03/12 09:09:04;;;;;;;;;;;12.30;61.40;;;;;;5030319;28;19909;-88
2023/03/12 09:11:33;;;;;;;;;;;12.30;61.20;;;;;;5048608;28;19909;-88
2023/03/12 09:14:02;;;;;;;;;;;12.30;61.30;;;;;;5031756;28;20070;-87
2023/03/12 09:16:30;;;;;;;;;;;12.30;61.00;;;;;;5032410;28;19920;-88
2023/03/12 09:18:56;;;;;;;;;;;12.30;61.00;;;;;;5033033;28;20037;-87
2023/03/12 09:21:22;;;;;;;;;;;12.40;61.00;;;;;;5034547;28;19924;-87
2023/03/12 09:23:48;;;;;;;;;;;12.40;60.90;;;;;;5033218;28;20030;-87
2023/03/12 09:26:16;;;;;;;;;;;12.40;60.80;;;;;;5033580;28;19917;-88
2023/03/12 09:28:43;;;;;;;;;;;12.40;60.90;;;;;;5033700;28;19923;-88
2023/03/12 09:31:09;;;;;;;;;;;12.40;61.00;;;;;;5035488;28;20145;-87
2023/03/12 09:33:38;;;;;;;;;;;12.40;61.10;;;;;;5037437;28;20024;-87
2023/03/12 09:36:07;;;;;;;;;;;12.40;61.10;;;;;;5036400;28;19919;-88
2023/03/12 09:38:34;;;;;;;;;;;12.40;61.20;;;;;;5036385;28;19909;-87
2023/03/12 09:41:02;;;;;;;;;;;12.40;61.30;;;;;;5036844;28;19920;-88
2023/03/12 09:43:32;;;;;;;;;;;12.50;61.30;;;;;;5039475;28;20164;-88
2023/03/12 09:45:58;;;;;;;;;;;12.50;61.40;;;;;;5035184;28;19909;-88
2023/03/12 09:48:24;;;;;;;;;;;12.50;61.70;;;;;;5054479;28;19919;-88
2023/03/12 09:50:53;;;;;;;;;;;12.50;62.00;;;;;;5036263;28;20164;-88
2023/03/12 09:53:28;;;;;;;;;;;12.50;62.20;;;;;;5034185;28;19975;-88
2023/03/12 09:55:57;;;;;;;;;;;12.50;62.50;;;;;;5035945;28;19917;-88
2023/03/12 09:58:30;;;;;;;;;;;12.50;62.80;;;;;;5037362;28;19916;-88
2023/03/12 10:01:15;;;;;;;;;;;12.50;63.10;;;;;;5035790;28;19948;-88
2023/03/12 10:03:56;;;;;;;;;;;12.50;63.30;;;;;;5035607;28;19909;-88
2023/03/12 10:06:35;;;;;;;;;;;12.50;63.50;;;;;;5034984;28;19940;-88
2023/03/12 10:09:20;;;;;;;;;;;12.50;63.70;;;;;;5035976;28;19948;-88
2023/03/12 10:11:54;;;;;;;;;;;12.50;63.90;;;;;;5034904;28;19908;-88
2023/03/12 10:14:38;;;;;;;;;;;12.50;64.10;;;;;;5035623;28;19956;-88
2023/03/12 10:17:12;;;;;;;;;;;12.50;64.50;;;;;;5035774;28;19978;-88
2023/03/12 10:19:47;;;;;;;;;;;12.50;64.70;;;;;;5035795;28;20158;-88
2023/03/12 10:22:38;;;;;;;;;;;12.50;65.00;;;;;;5037054;28;19940;-88
2023/03/12 10:25:14;;;;;;;;;;;12.50;66.10;;;;;;5035063;28;19917;-88
2023/03/12 10:27:43;;;;;;;;;;;12.50;66.10;;;;;;5052201;28;19917;-88
2023/03/12 10:30:16;;;;;;;;;;;12.50;66.10;;;;;;5034890;28;20036;-88
2023/03/12 10:32:48;;;;;;;;;;;12.50;66.00;;;;;;5033223;28;20352;-88
2023/03/12 10:35:14;;;;;;;;;;;12.50;66.10;;;;;;5034895;28;19909;-88
2023/03/12 10:37:44;;;;;;;;;;;12.50;66.20;;;;;;5034661;28;19916;-88
2023/03/12 10:40:22;;;;;;;;;;;12.50;66.50;;;;;;5034849;28;19956;-88
2023/03/12 10:42:49;;;;;;;;;;;12.50;66.60;;;;;;5032944;28;19912;-88
2023/03/12 10:45:33;;;;;;;;;;;12.60;66.90;;;;;;5035079;28;20159;-88
2023/03/12 10:48:05;;;;;;;;;;;12.50;67.00;;;;;;5033874;28;19932;-88
2023/03/12 10:50:33;;;;;;;;;;;12.50;67.40;;;;;;5036344;28;19978;-88
2023/03/12 10:53:11;;;;;;;;;;;12.50;67.70;;;;;;5035389;28;19909;-88
2023/03/12 10:55:40;;;;;;;;;;;12.50;68.00;;;;;;5036543;28;19909;-88
2023/03/12 10:58:05;;;;;;;;;;;12.50;68.30;;;;;;5036718;28;20187;-88
2023/03/12 11:00:34;;;;;;;;;;;12.50;68.60;;;;;;5036263;28;20118;-88
2023/03/12 11:03:19;;;;;;;;;;;12.50;68.70;;;;;;5035206;28;20398;-88
2023/03/12 11:05:54;;;;;;;;;;;12.50;68.90;;;;;;5034661;28;19919;-88
2023/03/12 11:08:26;;;;;;;;;;;12.50;69.00;;;;;;5035153;28;20263;-88
2023/03/12 11:10:52;;;;;;;;;;;12.60;69.30;;;;;;5035101;28;19921;-88
2023/03/12 11:13:30;;;;;;;;;;;12.60;69.50;;;;;;5034292;28;19915;-88
2023/03/12 11:16:18;;;;;;;;;;;12.60;69.60;;;;;;5052058;28;19916;-88
2023/03/12 11:19:00;;;;;;;;;;;12.60;69.60;;;;;;5021052;28;19920;-88
2023/03/12 11:21:27;;;;;;;;;;;12.60;69.70;;;;;;5033608;28;19966;-88
2023/03/12 11:23:55;;;;;;;;;;;12.60;69.80;;;;;;5034328;28;19913;-88
2023/03/12 11:26:30;;;;;;;;;;;12.60;69.90;;;;;;5052296;28;20194;-88
2023/03/12 11:29:15;;;;;;;;;;;12.60;69.90;;;;;;5033248;28;20290;-88
2023/03/12 11:31:42;;;;;;;;;;;12.60;70.00;;;;;;5033751;28;19920;-88
2023/03/12 11:34:20;;;;;;;;;;;12.70;69.80;;;;;;5051613;28;19912;-88
2023/03/12 11:36:45;;;;;;;;;;;12.70;69.70;;;;;;5035097;28;19970;-88
2023/03/12 11:39:17;;;;;;;;;;;12.70;69.80;;;;;;5051708;28;19917;-88
2023/03/12 11:41:42;;;;;;;;;;;12.70;69.80;;;;;;5035137;28;20190;-88
2023/03/12 11:44:11;;;;;;;;;;;12.80;69.70;;;;;;5031413;28;19909;-88
2023/03/12 11:46:37;;;;;;;;;;;12.80;70.20;;;;;;5032864;28;19919;-88
2023/03/12 11:49:15;;;;;;;;;;;12.80;69.50;;;;;;5034119;28;19909;-88
2023/03/12 11:51:41;;;;;;;;;;;12.80;69.50;;;;;;5033346;28;19909;-88
2023/03/12 11:54:26;;;;;;;;;;;12.90;69.60;;;;;;5033716;28;20234;-88
2023/03/12 11:56:53;;;;;;;;;;;12.90;69.60;;;;;;5032188;28;20089;-88
2023/03/12 11:59:37;;;;;;;;;;;12.90;69.50;;;;;;5034720;28;19913;-88
2023/03/12 12:02:22;;;;;;;;;;;12.90;69.20;;;;;;5036748;28;19971;-88
2023/03/12 12:05:08;;;;;;;;;;;13.00;69.10;;;;;;5034901;28;19909;-88
2023/03/12 12:07:33;;;;;;;;;;;13.00;68.90;;;;;;5031568;28;20172;-88
2023/03/12 12:10:08;;;;;;;;;;;13.10;68.70;;;;;;5033707;28;20160;-88
2023/03/12 12:12:37;;;;;;;;;;;13.10;68.80;;;;;;5034043;28;19909;-88
2023/03/12 12:15:21;;;;;;;;;;;13.10;68.70;;;;;;5047176;28;20287;-88
2023/03/12 12:17:50;;;;;;;;;;;13.10;68.60;;;;;;5030969;28;19909;-88
2023/03/12 12:20:31;;;;;;;;;;;13.10;68.70;;;;;;5032153;28;19920;-88
2023/03/12 12:23:14;;;;;;;;;;;13.10;68.80;;;;;;5031943;28;20035;-88
2023/03/12 12:26:04;;;;;;;;;;;13.10;68.80;;;;;;5030536;28;19944;-88
2023/03/12 12:28:50;;;;;;;;;;;13.20;68.90;;;;;;5032392;28;19919;-88
2023/03/12 12:31:25;;;;;;;;;;;13.20;69.10;;;;;;5029591;28;19909;-88
2023/03/12 12:34:16;;;;;;;;;;;13.10;69.10;;;;;;5031426;28;20054;-88
2023/03/12 12:36:47;;;;;;;;;;;13.20;69.30;;;;;;5048274;28;19913;-88
2023/03/12 12:39:20;;;;;;;;;;;13.20;69.40;;;;;;5030744;28;19909;-88
2023/03/12 12:41:50;;;;;;;;;;;13.20;69.70;;;;;;5032327;28;19917;-88
2023/03/12 12:44:17;;;;;;;;;;;13.20;69.90;;;;;;5048012;28;20265;-88
2023/03/12 12:46:54;;;;;;;;;;;13.20;70.20;;;;;;5039983;28;19939;-88
2023/03/12 12:49:22;;;;;;;;;;;13.20;70.30;;;;;;5029885;28;19931;-88
2023/03/12 12:52:00;;;;;;;;;;;13.20;70.30;;;;;;5032284;28;19905;-88
2023/03/12 12:54:28;;;;;;;;;;;13.20;70.40;;;;;;5031644;28;19917;-88
2023/03/12 12:57:01;;;;;;;;;;;13.20;70.50;;;;;;5032478;28;19940;-88
2023/03/12 12:59:36;;;;;;;;;;;13.20;70.50;;;;;;5029489;28;20245;-88
2023/03/12 13:02:03;;;;;;;;;;;13.20;70.50;;;;;;5031662;28;19913;-88
2023/03/12 13:04:39;;;;;;;;;;;13.20;70.90;;;;;;5049029;28;20015;-88
2023/03/12 13:07:04;;;;;;;;;;;13.20;71.00;;;;;;5031330;28;19909;-88
2023/03/12 13:09:38;;;;;;;;;;;13.20;71.10;;;;;;5030751;28;19909;-87
2023/03/12 13:12:27;;;;;;;;;;;13.20;71.10;;;;;;5030292;28;19909;-88
2023/03/12 13:14:59;;;;;;;;;;;13.20;71.20;;;;;;5018359;28;20195;-88
2023/03/12 13:17:26;;;;;;;;;;;13.30;71.40;;;;;;5051021;28;19909;-87
2023/03/12 13:19:56;;;;;;;;;;;13.30;71.10;;;;;;5049646;28;19939;-87
2023/03/12 13:22:29;;;;;;;;;;;13.40;71.00;;;;;;5031042;28;19913;-87
2023/03/12 13:25:13;;;;;;;;;;;13.50;70.80;;;;;;5032248;28;19908;-87
2023/03/12 13:27:39;;;;;;;;;;;13.50;70.30;;;;;;5032543;28;19917;-87
2023/03/12 13:30:27;;;;;;;;;;;13.60;70.10;;;;;;5049917;28;19920;-87
2023/03/12 13:32:55;;;;;;;;;;;13.70;70.00;;;;;;5049626;28;19952;-87
2023/03/12 13:35:21;;;;;;;;;;;13.70;69.50;;;;;;5032833;28;19932;-87
2023/03/12 13:37:58;;;;;;;;;;;13.80;69.70;;;;;;5032374;28;20299;-87
2023/03/12 13:40:30;;;;;;;;;;;13.80;69.80;;;;;;5031264;28;20084;-87
2023/03/12 13:43:01;;;;;;;;;;;13.90;70.00;;;;;;5047515;28;19913;-87
2023/03/12 13:45:30;;;;;;;;;;;14.00;75.10;;;;;;5029007;28;20089;-87
2023/03/12 13:48:00;;;;;;;;;;;14.00;75.10;;;;;;5048020;28;19955;-87
2023/03/12 13:50:28;;;;;;;;;;;14.10;73.20;;;;;;5029968;28;19909;-87
2023/03/12 13:52:59;;;;;;;;;;;14.10;72.40;;;;;;5028388;28;19948;-87
2023/03/12 13:55:36;;;;;;;;;;;14.10;72.20;;;;;;5030375;28;20172;-87
2023/03/12 13:58:07;;;;;;;;;;;14.00;72.30;;;;;;5048407;28;19916;-87
2023/03/12 14:00:49;;;;;;;;;;;14.00;72.70;;;;;;5031794;28;19916;-87
2023/03/12 14:03:24;;;;;;;;;;;14.00;72.80;;;;;;5031639;28;19927;-87
2023/03/12 14:05:52;;;;;;;;;;;14.00;72.70;;;;;;5049551;28;19909;-87
2023/03/12 14:08:17;;;;;;;;;;;13.90;72.80;;;;;;5028510;28;19909;-87
2023/03/12 14:11:00;;;;;;;;;;;13.90;73.30;;;;;;5028728;28;19991;-87
2023/03/12 14:13:32;;;;;;;;;;;13.90;73.30;;;;;;5045681;28;19948;-87
2023/03/12 14:16:01;;;;;;;;;;;13.80;73.60;;;;;;5028839;28;19909;-87
2023/03/12 14:18:32;;;;;;;;;;;13.80;73.60;;;;;;5032286;28;19982;-87
2023/03/12 14:20:59;;;;;;;;;;;13.80;73.90;;;;;;5032161;28;20128;-87
2023/03/12 14:23:37;;;;;;;;;;;13.80;73.90;;;;;;5032246;28;19908;-87
2023/03/12 14:26:07;;;;;;;;;;;13.80;74.10;;;;;;5034484;28;19916;-87
2023/03/12 14:28:40;;;;;;;;;;;13.70;74.40;;;;;;5034875;28;19921;-88
2023/03/12 14:31:09;;;;;;;;;;;13.70;74.60;;;;;;5040166;28;19917;-87